Time;durP1;ratioP1;P1;durP2;ratioP2;P2;SDS_P1;SDS_P2;PMS_P1;PMS_P2;Temp;Humidity;BMP_temperature;BMP_pressure;BME280_temperature;BME280_humidity;BME280_pressure;Samples;Min_cycle;Max_cycle;Signal;HPM_P1;HPM_P2
2022/08/12 00:42:53;;;;;;;20.53;7.97;;;15.50;71.40;;;;;;4995858;28;21051;-48
2022/08/12 00:45:20;;;;;;;10.87;8.10;;;15.60;71.80;;;;;;5010070;28;20492;-48
2022/08/12 00:47:51;;;;;;;10.03;8.77;;;15.50;71.30;;;;;;5000668;28;20488;-48
2022/08/12 00:50:20;;;;;;;8.27;6.43;;;15.50;70.60;;;;;;5001818;28;20893;-47
2022/08/12 00:52:50;;;;;;;15.37;12.17;;;15.40;72.00;;;;;;4987613;28;20492;-49
2022/08/12 00:55:19;;;;;;;27.17;8.20;;;15.30;71.60;;;;;;5023824;28;20534;-48
2022/08/12 00:57:47;;;;;;;12.17;10.17;;;15.30;72.00;;;;;;5016822;28;20945;-50
2022/08/12 01:00:17;;;;;;;9.13;6.73;;;15.20;72.70;;;;;;5021236;28;21394;-46
2022/08/12 01:02:50;;;;;;;20.23;9.37;;;15.20;71.60;;;;;;5005818;28;20839;-48
2022/08/12 01:13:47;;;;;;;11.27;9.33;;;14.80;73.30;;;;;;4990350;28;20631;-48
2022/08/12 01:16:16;;;;;;;14.53;9.00;;;14.70;73.50;;;;;;5002235;28;21629;-47
2022/08/12 01:18:45;;;;;;;13.53;9.07;;;14.60;73.80;;;;;;5000875;28;21096;-48
2022/08/12 01:21:19;;;;;;;11.40;7.80;;;14.60;73.60;;;;;;5000928;28;20493;-48
2022/08/12 01:23:51;;;;;;;34.03;11.57;;;14.70;73.90;;;;;;4999729;28;21199;-51
2022/08/12 01:26:22;;;;;;;13.10;9.37;;;14.70;73.70;;;;;;5001524;28;20597;-48
2022/08/12 01:28:52;;;;;;;14.83;11.13;;;14.70;73.10;;;;;;5002263;28;20938;-48
2022/08/12 01:31:20;;;;;;;21.03;9.70;;;14.70;73.20;;;;;;5003588;28;20539;-48
2022/08/12 01:33:58;;;;;;;16.13;11.03;;;14.70;73.10;;;;;;5001366;28;21031;-48
2022/08/12 01:36:26;;;;;;;17.80;8.27;;;14.60;73.20;;;;;;4996134;28;20569;-48
2022/08/12 01:38:56;;;;;;;16.77;11.20;;;14.60;73.70;;;;;;5013362;28;20487;-48
2022/08/12 01:41:29;;;;;;;10.67;8.30;;;14.50;73.60;;;;;;5024759;28;20490;-48
2022/08/12 01:43:59;;;;;;;14.13;9.40;;;14.50;73.90;;;;;;5012328;28;20499;-48
2022/08/12 01:46:39;;;;;;;16.20;11.27;;;14.50;73.20;;;;;;5012854;28;20511;-48
2022/08/12 01:49:20;;;;;;;10.03;7.30;;;14.50;73.60;;;;;;5005771;28;25322;-48
2022/08/12 01:51:56;;;;;;;15.90;11.30;;;14.40;73.50;;;;;;5008177;28;20538;-48
2022/08/12 01:54:26;;;;;;;9.07;7.33;;;14.40;72.50;;;;;;5015642;28;20496;-47
2022/08/12 01:57:01;;;;;;;20.03;11.17;;;14.40;72.90;;;;;;5005177;28;20488;-47
2022/08/12 01:59:49;;;;;;;18.57;8.10;;;14.50;73.30;;;;;;4995419;28;20484;-48
2022/08/12 02:02:18;;;;;;;10.40;8.07;;;14.50;73.60;;;;;;5005749;28;21271;-47
2022/08/12 02:14:05;;;;;;;11.23;8.37;;;14.20;73.90;;;;;;5005862;28;20496;-47
2022/08/12 02:16:50;;;;;;;13.67;8.40;;;13.90;75.00;;;;;;4983149;28;20491;-48
2022/08/12 02:19:29;;;;;;;9.63;6.43;;;13.80;75.00;;;;;;5004923;28;21283;-47
2022/08/12 02:22:11;;;;;;;21.60;11.87;;;13.80;75.00;;;;;;5004672;28;20496;-47
2022/08/12 02:24:41;;;;;;;21.70;7.73;;;13.90;74.00;;;;;;5007243;28;21056;-47
2022/08/12 02:27:12;;;;;;;16.97;9.10;;;13.90;73.90;;;;;;5004892;28;20488;-47
2022/08/12 02:29:41;;;;;;;12.90;8.30;;;;;;;;;;5005916;28;20855;-47
2022/08/12 02:32:09;;;;;;;13.93;9.00;;;14.00;74.80;;;;;;5006222;28;20496;-47
2022/08/12 02:34:37;;;;;;;13.33;8.20;;;14.00;74.60;;;;;;5008689;28;20515;-47
2022/08/12 02:37:04;;;;;;;19.20;7.67;;;14.00;73.50;;;;;;5010289;28;20493;-47
2022/08/12 02:39:33;;;;;;;9.97;7.27;;;14.10;74.10;;;;;;5004954;28;20496;-47
2022/08/12 02:42:05;;;;;;;13.10;8.93;;;14.10;74.50;;;;;;5000759;28;20488;-47
2022/08/12 02:44:39;;;;;;;8.87;6.33;;;14.10;74.60;;;;;;5009262;28;20541;-47
2022/08/12 02:47:08;;;;;;;11.93;7.87;;;14.00;73.80;;;;;;5003108;28;20492;-47
2022/08/12 02:49:41;;;;;;;12.73;8.03;;;14.00;73.50;;;;;;5005800;28;20493;-47
2022/08/12 02:52:09;;;;;;;9.00;6.80;;;13.90;74.40;;;;;;5005716;28;20578;-47
2022/08/12 02:54:36;;;;;;;13.90;9.40;;;;;;;;;;5003027;28;20551;-47
2022/08/12 02:57:05;;;;;;;22.77;8.87;;;13.60;75.50;;;;;;4999400;28;20750;-47
2022/08/12 02:59:35;;;;;;;12.60;7.30;;;13.40;76.90;;;;;;5007271;28;20489;-47
2022/08/12 03:02:04;;;;;;;24.93;8.33;;;13.20;77.70;;;;;;5008425;28;20868;-47
2022/08/12 03:04:36;;;;;;;16.27;7.20;;;13.30;77.20;;;;;;5012320;28;21191;-49
2022/08/12 03:07:11;;;;;;;11.30;6.93;;;13.30;76.60;;;;;;5004671;28;20542;-47
2022/08/12 03:09:45;;;;;;;9.67;8.03;;;13.30;76.30;;;;;;5004421;28;20539;-47
2022/08/12 03:12:13;;;;;;;15.97;8.77;;;13.40;75.90;;;;;;5002726;28;20501;-46
2022/08/12 03:14:43;;;;;;;9.50;7.30;;;13.40;76.40;;;;;;5004892;28;20488;-46
2022/08/12 03:17:15;;;;;;;20.40;6.77;;;13.40;76.40;;;;;;5003294;28;20497;-47
2022/08/12 03:19:44;;;;;;;10.73;7.90;;;13.40;75.60;;;;;;4991923;28;20501;-46
2022/08/12 03:22:13;;;;;;;12.00;8.20;;;;;;;;;;5009207;28;20632;-46
2022/08/12 03:24:43;;;;;;;14.13;8.70;;;13.50;76.50;;;;;;5002215;28;20588;-46
2022/08/12 03:27:14;;;;;;;11.67;7.57;;;13.40;76.10;;;;;;5002501;28;24828;-46
2022/08/12 03:29:46;;;;;;;11.23;7.93;;;;;;;;;;5003350;28;20489;-46
2022/08/12 03:32:13;;;;;;;13.20;8.87;;;13.40;76.20;;;;;;5004197;28;20526;-45
2022/08/12 03:34:44;;;;;;;12.37;8.23;;;13.40;75.90;;;;;;5003912;28;20492;-46
2022/08/12 03:37:10;;;;;;;19.70;7.23;;;13.40;76.00;;;;;;5000161;28;20492;-46
2022/08/12 03:39:43;;;;;;;12.77;8.30;;;13.30;76.20;;;;;;5003786;28;20604;-46
2022/08/12 03:42:20;;;;;;;14.83;8.40;;;13.30;75.40;;;;;;4993848;28;20484;-50
2022/08/12 04:01:40;;;;;;;12.37;9.23;;;13.20;76.30;;;;;;4984616;28;20484;-47
2022/08/12 04:04:08;;;;;;;12.37;8.00;;;13.20;77.10;;;;;;5001474;28;20492;-47
2022/08/12 04:06:43;;;;;;;22.90;8.57;;;13.20;77.20;;;;;;5008301;28;20546;-46
2022/08/12 04:09:10;;;;;;;9.13;7.10;;;13.20;77.40;;;;;;4991199;28;21696;-46
2022/08/12 04:14:25;;;;;;;9.33;7.47;;;13.20;76.80;;;;;;5004893;28;20572;-46
2022/08/12 04:16:52;;;;;;;18.60;11.20;;;12.90;76.70;;;;;;4999056;28;20550;-46
2022/08/12 04:19:20;;;;;;;8.13;7.23;;;13.20;76.50;;;;;;5001572;28;20489;-46
2022/08/12 04:21:48;;;;;;;16.73;9.23;;;13.20;76.60;;;;;;5001929;28;20486;-47
2022/08/12 04:24:17;;;;;;;36.47;7.47;;;13.20;76.30;;;;;;5004456;28;20551;-46
2022/08/12 04:26:44;;;;;;;8.90;8.07;;;13.20;77.40;;;;;;5003754;28;20861;-47
2022/08/12 04:29:11;;;;;;;10.37;9.30;;;13.10;78.60;;;;;;5002337;28;20488;-46
2022/08/12 04:31:40;;;;;;;10.17;7.73;;;13.20;77.50;;;;;;5000683;28;21180;-46
2022/08/12 04:34:07;;;;;;;10.70;7.47;;;13.20;77.40;;;;;;5010079;28;20484;-47
2022/08/12 04:36:36;;;;;;;13.23;8.23;;;13.20;78.30;;;;;;5000482;28;20500;-45
2022/08/12 04:39:06;;;;;;;15.43;8.60;;;13.20;78.30;;;;;;5002155;28;20544;-46
2022/08/12 04:41:34;;;;;;;7.70;6.83;;;13.20;78.00;;;;;;5004113;28;20492;-46
2022/08/12 04:44:01;;;;;;;10.47;8.00;;;13.20;77.90;;;;;;5003519;28;20476;-46
2022/08/12 04:46:28;;;;;;;15.83;8.83;;;13.10;78.00;;;;;;4999803;28;20484;-46
2022/08/12 04:48:54;;;;;;;13.23;9.40;;;13.10;77.70;;;;;;5000611;28;20606;-46
2022/08/12 04:51:22;;;;;;;8.80;7.90;;;;;;;;;;4999069;28;21132;-46
2022/08/12 04:53:50;;;;;;;18.87;8.67;;;13.10;77.20;;;;;;4997086;28;20535;-46
2022/08/12 04:56:19;;;;;;;10.63;8.60;;;13.10;78.10;;;;;;4999377;28;20496;-46
2022/08/12 04:58:46;;;;;;;16.67;11.33;;;13.10;78.60;;;;;;5002859;28;20535;-46
2022/08/12 05:01:13;;;;;;;21.97;10.40;;;13.20;79.60;;;;;;5006091;28;20488;-46
2022/08/12 05:03:40;;;;;;;11.23;9.50;;;13.20;79.40;;;;;;5009117;28;20563;-46
2022/08/12 05:06:07;;;;;;;8.27;7.03;;;13.30;78.90;;;;;;5000143;28;20617;-46
2022/08/12 05:08:35;;;;;;;11.60;7.67;;;13.30;78.70;;;;;;5001328;28;21594;-46
2022/08/12 05:11:03;;;;;;;9.27;7.10;;;13.40;78.80;;;;;;5000879;28;20854;-46
2022/08/12 05:13:36;;;;;;;11.20;9.40;;;13.40;77.80;;;;;;5007083;28;20472;-46
2022/08/12 05:16:04;;;;;;;8.17;7.07;;;13.50;78.10;;;;;;5019546;28;24986;-45
2022/08/12 05:18:31;;;;;;;10.30;6.90;;;13.50;77.40;;;;;;5004514;28;20488;-45
2022/08/12 05:20:59;;;;;;;13.70;10.10;;;13.50;78.40;;;;;;5006453;28;20579;-46
2022/08/12 05:23:27;;;;;;;14.83;9.23;;;;;;;;;;4995285;28;20494;-46
2022/08/12 05:25:55;;;;;;;13.40;11.00;;;13.60;78.40;;;;;;5015207;28;20562;-46
2022/08/12 05:28:23;;;;;;;19.93;9.73;;;13.80;79.70;;;;;;5001346;28;20496;-46
2022/08/12 05:30:52;;;;;;;14.43;12.33;;;13.90;80.10;;;;;;5001005;28;20492;-46
2022/08/12 05:33:18;;;;;;;20.07;10.13;;;14.00;80.60;;;;;;5001469;28;20523;-46
2022/08/12 05:35:46;;;;;;;28.83;11.87;;;14.20;81.40;;;;;;5001044;28;20549;-46
2022/08/12 05:41:17;;;;;;;16.43;9.50;;;14.70;80.90;;;;;;5004640;28;20809;-46
2022/08/12 05:43:45;;;;;;;14.17;11.83;;;14.90;81.00;;;;;;4998013;28;20864;-46
2022/08/12 05:46:13;;;;;;;37.57;10.13;;;15.10;80.60;;;;;;4990284;28;20859;-46
2022/08/12 05:48:40;;;;;;;14.83;10.57;;;15.30;79.80;;;;;;5020333;28;20488;-46
2022/08/12 05:51:07;;;;;;;10.40;9.23;;;15.50;80.10;;;;;;4999818;28;20484;-45
2022/08/12 05:53:34;;;;;;;22.73;10.07;;;15.60;80.00;;;;;;5000547;28;20500;-45
2022/08/12 05:56:00;;;;;;;11.07;9.70;;;15.80;78.90;;;;;;5003143;28;20493;-46
2022/08/12 05:58:27;;;;;;;9.97;9.00;;;15.90;78.30;;;;;;4995940;28;20493;-46
2022/08/12 06:00:55;;;;;;;35.97;10.87;;;16.10;78.00;;;;;;4993384;28;20583;-45
2022/08/12 06:03:24;;;;;;;11.50;9.73;;;16.30;78.10;;;;;;5001222;28;20492;-46
2022/08/12 06:05:51;;;;;;;12.93;10.70;;;16.40;78.40;;;;;;5003108;28;21033;-46
2022/08/12 06:08:18;;;;;;;18.23;9.70;;;16.70;77.20;;;;;;4995452;28;20504;-46
2022/08/12 06:10:45;;;;;;;11.73;9.73;;;16.90;77.10;;;;;;4985811;28;20799;-46
2022/08/12 06:13:13;;;;;;;10.70;8.80;;;17.00;76.70;;;;;;4999099;28;21009;-46
2022/08/12 06:15:41;;;;;;;17.80;9.00;;;17.30;76.00;;;;;;5001607;28;20818;-47
2022/08/12 06:18:10;;;;;;;9.33;8.40;;;17.40;76.50;;;;;;5004837;28;20548;-46
2022/08/12 06:20:39;;;;;;;12.90;8.20;;;17.60;75.90;;;;;;5001769;28;20527;-46
2022/08/12 06:23:06;;;;;;;16.40;7.93;;;18.00;75.10;;;;;;4997553;28;20475;-46
2022/08/12 06:25:33;;;;;;;8.50;7.67;;;18.10;74.80;;;;;;4990810;28;20935;-46
2022/08/12 06:28:02;;;;;;;21.43;8.67;;;18.30;74.50;;;;;;4990395;28;20504;-46
2022/08/12 06:30:32;;;;;;;8.60;6.90;;;18.50;73.90;;;;;;4991145;28;20485;-47
2022/08/12 06:32:59;;;;;;;13.50;7.17;;;18.70;73.40;;;;;;4994894;28;20501;-47
2022/08/12 06:35:26;;;;;;;18.10;8.20;;;19.10;73.20;;;;;;5000355;28;20523;-47
2022/08/12 06:37:55;;;;;;;8.50;7.67;;;19.30;73.50;;;;;;4999801;28;20634;-47
2022/08/12 06:43:04;;;;;;;14.67;6.50;;;19.90;70.80;;;;;;4993102;28;20553;-46
2022/08/12 06:45:31;;;;;;;7.43;5.80;;;20.20;68.40;;;;;;4986652;28;20487;-47
2022/08/12 06:48:02;;;;;;;6.30;4.93;;;20.40;67.40;;;;;;4993826;28;20492;-46
2022/08/12 06:50:29;;;;;;;7.23;5.40;;;21.00;66.50;;;;;;4992046;28;21082;-46
2022/08/12 06:52:59;;;;;;;8.53;6.60;;;21.30;66.10;;;;;;4992700;28;21051;-46
2022/08/12 06:55:26;;;;;;;6.63;6.13;;;21.60;65.40;;;;;;4992740;28;21318;-47
2022/08/12 06:57:54;;;;;;;10.83;7.60;;;21.90;64.70;;;;;;5022042;28;20518;-48
2022/08/12 07:00:22;;;;;;;12.57;5.93;;;22.30;64.30;;;;;;5011342;28;20500;-46
2022/08/12 07:02:50;;;;;;;17.30;6.73;;;22.70;63.00;;;;;;4985831;28;20500;-47
2022/08/12 07:05:23;;;;;;;7.10;6.13;;;23.00;62.10;;;;;;4994708;28;20727;-46
2022/08/12 07:08:04;;;;;;;6.70;6.17;;;23.30;61.90;;;;;;5011128;28;20492;-48
2022/08/12 07:10:33;;;;;;;6.30;5.50;;;23.70;59.80;;;;;;4994847;28;20495;-47
2022/08/12 07:13:01;;;;;;;10.10;5.67;;;23.90;59.50;;;;;;4998845;28;21044;-47
2022/08/12 07:15:29;;;;;;;8.83;4.50;;;24.20;59.20;;;;;;4998908;28;20500;-47
2022/08/12 07:18:03;;;;;;;13.23;5.53;;;24.40;58.40;;;;;;5008670;28;20533;-48
2022/08/12 07:20:31;;;;;;;5.63;5.13;;;24.50;58.60;;;;;;5017458;28;21087;-48
2022/08/12 07:22:58;;;;;;;10.93;5.03;;;24.70;58.00;;;;;;5014612;28;21022;-48
2022/08/12 07:25:33;;;;;;;5.27;4.87;;;24.90;58.00;;;;;;5032207;28;21184;-50
2022/08/12 07:28:04;;;;;;;26.33;5.37;;;25.20;58.00;;;;;;5027524;28;20605;-48
2022/08/12 07:30:33;;;;;;;5.43;4.77;;;25.30;57.40;;;;;;5024564;28;20840;-48
2022/08/12 07:33:03;;;;;;;7.00;4.73;;;25.50;57.00;;;;;;5015242;28;21440;-48
2022/08/12 07:35:31;;;;;;;14.67;4.67;;;25.70;56.60;;;;;;5017049;28;20531;-48
2022/08/12 07:37:58;;;;;;;4.77;4.47;;;25.90;56.20;;;;;;5018046;28;20996;-49
2022/08/12 07:40:26;;;;;;;7.60;5.67;;;26.00;55.60;;;;;;5014306;28;20464;-48
2022/08/12 07:42:53;;;;;;;62.53;7.70;;;26.30;55.90;;;;;;5019604;28;20477;-50
2022/08/12 07:45:21;;;;;;;6.30;5.70;;;26.50;55.70;;;;;;5019564;28;20855;-48
2022/08/12 07:47:50;;;;;;;8.83;7.77;;;26.60;55.40;;;;;;5031281;28;20568;-49
2022/08/12 07:50:19;;;;;;;5.80;5.30;;;26.90;54.50;;;;;;5031126;28;20467;-49
2022/08/12 07:52:47;;;;;;;9.60;8.70;;;27.00;54.80;;;;;;5037021;28;20478;-49
2022/08/12 07:55:16;;;;;;;9.43;6.70;;;27.30;54.90;;;;;;5014226;28;21000;-49
2022/08/12 07:57:57;;;;;;;12.93;6.43;;;27.50;54.30;;;;;;5025734;28;20909;-48
2022/08/12 08:00:26;;;;;;;7.77;5.20;;;;;;;;;;5020071;28;20864;-50
2022/08/12 08:02:53;;;;;;;8.60;5.80;;;28.00;53.00;;;;;;5002165;28;21128;-49
2022/08/12 08:05:21;;;;;;;6.13;5.53;;;28.10;53.20;;;;;;5021942;28;21008;-50
2022/08/12 08:07:48;;;;;;;7.77;7.07;;;28.50;53.60;;;;;;5021129;28;20478;-50
2022/08/12 08:10:16;;;;;;;6.13;4.90;;;28.70;52.50;;;;;;5033410;28;20549;-49
2022/08/12 08:12:55;;;;;;;7.93;6.83;;;29.00;52.10;;;;;;5015555;28;20519;-52
2022/08/12 08:15:26;;;;;;;15.63;5.40;;;29.20;51.20;;;;;;5031592;28;20525;-50
2022/08/12 08:17:56;;;;;;;6.93;6.23;;;29.30;50.70;;;;;;5029406;28;20864;-51
2022/08/12 08:20:27;;;;;;;4.20;3.70;;;;;;;;;;5033877;28;21091;-51
2022/08/12 08:22:55;;;;;;;7.53;6.90;;;29.50;49.80;;;;;;5025785;28;20757;-51
2022/08/12 08:25:29;;;;;;;5.43;5.00;;;29.50;49.20;;;;;;5031859;28;20496;-51
2022/08/12 08:27:58;;;;;;;12.23;5.40;;;29.50;49.80;;;;;;5013260;28;20963;-51
2022/08/12 08:30:28;;;;;;;4.17;3.83;;;29.50;48.80;;;;;;5035843;28;20479;-50
2022/08/12 08:32:55;;;;;;;23.37;7.17;;;29.50;48.20;;;;;;5023010;28;20885;-53
2022/08/12 08:35:22;;;;;;;9.23;4.37;;;29.40;48.50;;;;;;5027813;28;21210;-53
2022/08/12 08:37:49;;;;;;;5.23;4.83;;;29.60;48.60;;;;;;5013700;28;20563;-51
2022/08/12 08:43:01;;;;;;;5.70;3.87;;;29.30;47.60;;;;;;5008927;28;20482;-53
2022/08/12 08:45:29;;;;;;;5.17;4.77;;;29.40;48.20;;;;;;5010693;28;20897;-52
2022/08/12 08:47:56;;;;;;;13.60;5.80;;;29.50;48.30;;;;;;4998710;28;20543;-52
2022/08/12 08:50:23;;;;;;;4.53;4.13;;;29.70;48.20;;;;;;5011571;28;20480;-52
2022/08/12 08:52:49;;;;;;;7.10;6.50;;;29.80;48.40;;;;;;5014119;28;20481;-52
2022/08/12 08:55:17;;;;;;;13.00;4.60;;;29.50;47.40;;;;;;5023889;28;20792;-53
2022/08/12 08:57:48;;;;;;;9.93;6.50;;;29.40;47.60;;;;;;5026571;28;20486;-51
2022/08/12 09:00:17;;;;;;;4.27;3.97;;;29.50;48.60;;;;;;5031889;28;20847;-53
2022/08/12 09:02:46;;;;;;;6.30;5.67;;;29.60;47.60;;;;;;5014452;28;20477;-48
2022/08/12 09:05:13;;;;;;;4.73;4.30;;;29.50;46.80;;;;;;5011260;28;20493;-48
2022/08/12 09:07:44;;;;;;;4.60;4.20;;;29.60;48.40;;;;;;5014325;28;20993;-48
2022/08/12 09:10:11;;;;;;;3.73;3.43;;;29.70;47.10;;;;;;5025221;28;20977;-48
2022/08/12 09:15:23;;;;;;;4.83;3.80;;;30.10;47.40;;;;;;5032714;28;20541;-48
2022/08/12 09:17:55;;;;;;;5.27;3.70;;;30.30;47.00;;;;;;5014444;28;20573;-48
2022/08/12 09:20:23;;;;;;;5.10;3.77;;;30.00;45.00;;;;;;5022848;28;20488;-48
2022/08/12 09:22:50;;;;;;;6.77;6.03;;;30.10;46.30;;;;;;5028168;28;20483;-48
2022/08/12 09:25:17;;;;;;;4.23;3.83;;;30.30;46.50;;;;;;5030286;28;20476;-47
2022/08/12 09:27:44;;;;;;;7.30;3.13;;;30.60;46.20;;;;;;5027147;28;20534;-48
2022/08/12 09:30:14;;;;;;;5.27;3.90;;;30.80;45.50;;;;;;5025838;28;20479;-48
2022/08/12 09:32:42;;;;;;;4.43;4.03;;;31.00;45.60;;;;;;5028908;28;20483;-47
2022/08/12 09:35:11;;;;;;;11.20;3.27;;;31.10;45.40;;;;;;5023041;28;20533;-47
2022/08/12 09:37:38;;;;;;;3.87;3.50;;;31.00;43.90;;;;;;5024142;28;20477;-48
2022/08/12 09:40:06;;;;;;;4.50;3.30;;;31.20;45.00;;;;;;5024727;28;20499;-48
2022/08/12 09:45:23;;;;;;;3.63;3.33;;;31.40;44.00;;;;;;5027634;28;20838;-47
2022/08/12 09:47:50;;;;;;;11.60;3.70;;;31.30;43.80;;;;;;5027700;28;20479;-48
2022/08/12 09:50:18;;;;;;;4.63;4.23;;;31.20;44.20;;;;;;5028511;28;21040;-49
2022/08/12 09:52:51;;;;;;;7.93;5.77;;;31.30;45.20;;;;;;5028971;28;20815;-48
2022/08/12 09:55:18;;;;;;;4.40;3.40;;;31.30;44.30;;;;;;5029261;28;20570;-47
2022/08/12 09:57:45;;;;;;;7.17;6.50;;;31.20;44.50;;;;;;5018932;28;20546;-48
2022/08/12 10:00:13;;;;;;;8.30;3.00;;;31.20;44.20;;;;;;5037951;28;21934;-48
2022/08/12 10:02:57;;;;;;;6.10;3.20;;;31.30;44.30;;;;;;5021715;28;20458;-47
2022/08/12 10:05:25;;;;;;;4.57;3.60;;;31.30;43.10;;;;;;5025368;28;20474;-48
2022/08/12 10:07:51;;;;;;;10.17;7.20;;;31.10;43.00;;;;;;5016214;28;20484;-48
2022/08/12 10:10:18;;;;;;;5.07;4.53;;;31.10;44.10;;;;;;5009963;28;20915;-47
2022/08/12 10:15:31;;;;;;;5.67;4.30;;;31.10;43.80;;;;;;5000414;28;20486;-48
2022/08/12 10:17:58;;;;;;;5.33;3.73;;;31.10;43.20;;;;;;5011408;28;20509;-48
2022/08/12 10:20:26;;;;;;;12.03;3.40;;;31.30;44.10;;;;;;5012648;28;20993;-48
2022/08/12 10:23:00;;;;;;;4.63;3.73;;;31.50;43.30;;;;;;5018317;28;20475;-48
2022/08/12 10:30:56;;;;;;;5.67;3.33;;;31.70;43.40;;;;;;5018632;28;20657;-48
2022/08/12 10:33:24;;;;;;;3.40;3.10;;;31.60;43.20;;;;;;5014504;28;20490;-48
2022/08/12 10:35:53;;;;;;;2.93;2.73;;;31.80;43.30;;;;;;5020610;28;21199;-46
2022/08/12 10:38:20;;;;;;;4.30;3.50;;;31.90;43.90;;;;;;5024968;28;21014;-48
2022/08/12 10:43:43;;;;;;;4.20;3.63;;;32.10;42.40;;;;;;5032296;28;20858;-47
2022/08/12 10:46:16;;;;;;;10.80;2.80;;;32.20;42.30;;;;;;5017121;28;20483;-47
2022/08/12 10:48:47;;;;;;;16.97;3.67;;;32.40;42.70;;;;;;5013771;28;21145;-48
2022/08/12 10:51:17;;;;;;;3.17;2.90;;;32.40;42.60;;;;;;5013221;28;20472;-48
2022/08/12 10:53:45;;;;;;;5.60;4.20;;;32.60;43.30;;;;;;5020752;28;21365;-48
2022/08/12 10:56:12;;;;;;;3.10;2.67;;;32.50;41.40;;;;;;5033118;28;21028;-48
2022/08/12 10:58:39;;;;;;;2.37;1.93;;;32.60;41.60;;;;;;5033878;28;20476;-47
2022/08/12 11:01:09;;;;;;;13.30;3.47;;;32.70;41.80;;;;;;5023495;28;21263;-47
2022/08/12 11:03:36;;;;;;;5.30;2.30;;;32.70;41.90;;;;;;5015812;28;20472;-47
2022/08/12 11:06:04;;;;;;;2.63;2.43;;;32.60;41.10;;;;;;5039739;28;20482;-48
2022/08/12 11:08:33;;;;;;;2.70;2.40;;;32.60;41.90;;;;;;5009954;28;20488;-49
2022/08/12 11:11:00;;;;;;;3.67;3.20;;;32.50;41.40;;;;;;5023074;28;20490;-48
2022/08/12 11:13:26;;;;;;;2.70;2.47;;;32.40;41.70;;;;;;5026224;28;20461;-47
2022/08/12 11:15:54;;;;;;;10.67;3.10;;;32.50;41.30;;;;;;5035263;28;20604;-48
2022/08/12 11:18:21;;;;;;;2.77;2.37;;;32.60;41.50;;;;;;5026009;28;21503;-48
2022/08/12 11:20:48;;;;;;;8.33;3.87;;;32.30;41.40;;;;;;5027880;28;20450;-49
2022/08/12 11:23:15;;;;;;;25.13;3.57;;;32.50;41.70;;;;;;5016657;28;20491;-49
2022/08/12 11:25:44;;;;;;;2.57;2.37;;;32.30;40.60;;;;;;5037763;28;20488;-48
2022/08/12 11:28:11;;;;;;;3.13;2.70;;;32.50;40.90;;;;;;5019739;28;21139;-49
2022/08/12 11:30:37;;;;;;;17.83;2.90;;;32.50;42.40;;;;;;5013173;28;20504;-48
2022/08/12 11:33:04;;;;;;;4.40;2.90;;;32.60;41.90;;;;;;5009753;28;21440;-48
2022/08/12 11:35:31;;;;;;;3.03;2.07;;;32.70;42.10;;;;;;5011963;28;20481;-47
2022/08/12 11:38:01;;;;;;;11.70;2.87;;;32.80;41.30;;;;;;5008164;28;21011;-47
2022/08/12 11:40:28;;;;;;;2.57;2.37;;;32.90;42.40;;;;;;5014060;28;20546;-47
2022/08/12 11:42:57;;;;;;;4.20;2.10;;;32.70;41.10;;;;;;5016321;28;20455;-55
2022/08/12 11:45:24;;;;;;;11.10;2.80;;;32.70;41.80;;;;;;5016436;28;20535;-57
2022/08/12 11:47:50;;;;;;;2.70;2.40;;;32.60;41.80;;;;;;5024734;28;20488;-58
2022/08/12 11:50:19;;;;;;;2.57;2.37;;;32.70;41.80;;;;;;5028114;28;20553;-54
2022/08/12 11:52:45;;;;;;;16.00;2.77;;;33.20;41.50;;;;;;5030023;28;20827;-56
2022/08/12 11:55:12;;;;;;;2.73;2.33;;;32.80;41.50;;;;;;5030898;28;20468;-59
2022/08/12 11:57:48;;;;;;;3.50;2.07;;;32.90;41.00;;;;;;5025404;28;20504;-55
2022/08/12 12:00:17;;;;;;;3.50;2.57;;;32.90;40.50;;;;;;5019698;28;20483;-53
2022/08/12 12:02:44;;;;;;;2.27;2.07;;;32.90;39.80;;;;;;5024371;28;20518;-55
2022/08/12 12:05:11;;;;;;;3.80;2.57;;;32.90;39.50;;;;;;5007757;28;20484;-58
2022/08/12 12:07:39;;;;;;;3.73;2.87;;;33.00;39.40;;;;;;5027135;28;20557;-53
2022/08/12 12:10:06;;;;;;;4.80;2.57;;;32.90;40.10;;;;;;5024271;28;20481;-54
2022/08/12 12:12:33;;;;;;;19.93;2.80;;;33.10;40.50;;;;;;5012572;28;20547;-54
2022/08/12 12:15:00;;;;;;;2.80;2.60;;;33.20;40.20;;;;;;5023337;28;20487;-53
2022/08/12 12:17:28;;;;;;;2.50;2.27;;;33.20;40.00;;;;;;5010134;28;20953;-54
2022/08/12 12:19:55;;;;;;;5.20;2.53;;;33.10;39.80;;;;;;5008006;28;20533;-59
2022/08/12 12:22:22;;;;;;;2.77;2.20;;;33.20;40.80;;;;;;5010939;28;20491;-53
2022/08/12 12:24:49;;;;;;;3.20;2.57;;;33.20;39.80;;;;;;5002278;28;20514;-54
2022/08/12 12:27:18;;;;;;;3.30;3.00;;;33.30;39.00;;;;;;5026809;28;20483;-54
2022/08/12 12:29:44;;;;;;;3.43;2.27;;;33.10;40.00;;;;;;5013183;28;20570;-53
2022/08/12 12:32:11;;;;;;;2.50;2.30;;;33.30;39.90;;;;;;5013652;28;20466;-54
2022/08/12 12:34:39;;;;;;;2.40;2.20;;;33.40;39.90;;;;;;5031742;28;20454;-54
2022/08/12 12:37:10;;;;;;;3.90;2.10;;;33.50;39.30;;;;;;5027451;28;20484;-54
2022/08/12 12:39:37;;;;;;;2.70;2.40;;;33.40;39.00;;;;;;5025296;28;20508;-54
2022/08/12 12:42:04;;;;;;;11.13;2.67;;;32.80;39.00;;;;;;5031647;28;20654;-56
2022/08/12 12:44:34;;;;;;;4.03;2.90;;;32.80;39.30;;;;;;5008449;28;20462;-55
2022/08/12 12:47:05;;;;;;;3.23;2.93;;;32.60;39.20;;;;;;4981320;28;20701;-55
2022/08/12 12:49:35;;;;;;;4.63;2.50;;;32.90;40.50;;;;;;5008793;28;21025;-55
2022/08/12 12:52:07;;;;;;;3.17;2.87;;;32.80;38.80;;;;;;4985837;28;21152;-55
2022/08/12 12:54:34;;;;;;;2.73;2.27;;;33.20;40.10;;;;;;5012902;28;20509;-55
2022/08/12 12:57:00;;;;;;;3.40;2.00;;;33.40;40.10;;;;;;5009948;28;20513;-55
2022/08/12 12:59:27;;;;;;;2.67;2.43;;;33.50;39.60;;;;;;5010165;28;20476;-54
2022/08/12 13:02:05;;;;;;;25.67;3.00;;;33.70;39.40;;;;;;5007823;28;20493;-54
2022/08/12 13:04:33;;;;;;;2.43;2.23;;;33.70;38.60;;;;;;4995070;28;20489;-56
2022/08/12 13:07:00;;;;;;;2.60;1.97;;;33.70;38.60;;;;;;5005046;28;20520;-53
2022/08/12 13:09:29;;;;;;;11.13;2.40;;;33.70;38.70;;;;;;5009984;28;20459;-54
2022/08/12 13:11:59;;;;;;;2.00;1.73;;;33.70;38.50;;;;;;4993301;28;20835;-55
2022/08/12 13:14:26;;;;;;;9.50;2.87;;;33.70;38.40;;;;;;5009306;28;20559;-55
2022/08/12 13:16:53;;;;;;;3.57;2.17;;;33.90;39.50;;;;;;5005214;28;20463;-54
2022/08/12 13:19:20;;;;;;;2.57;2.00;;;33.90;38.90;;;;;;5012726;28;20560;-53
2022/08/12 13:24:30;;;;;;;6.37;2.50;;;33.90;39.30;;;;;;5013268;28;20476;-52
2022/08/12 13:26:56;;;;;;;2.57;2.37;;;34.00;39.20;;;;;;5006545;28;20538;-53
2022/08/12 13:29:23;;;;;;;10.63;2.57;;;34.10;39.20;;;;;;5006988;28;20863;-53
2022/08/12 13:31:54;;;;;;;3.30;2.33;;;34.20;39.30;;;;;;5009627;28;20941;-55
2022/08/12 13:34:22;;;;;;;3.33;2.37;;;;;;;;;;5000937;28;22121;-53
2022/08/12 13:36:49;;;;;;;2.97;2.47;;;34.00;39.20;;;;;;5032573;28;21006;-53
2022/08/12 13:39:15;;;;;;;3.40;2.27;;;34.00;39.00;;;;;;5023712;28;20488;-54
2022/08/12 13:41:43;;;;;;;2.30;2.10;;;33.90;39.80;;;;;;5025829;28;20512;-53
2022/08/12 13:44:10;;;;;;;2.10;1.87;;;34.10;39.90;;;;;;5027739;28;20463;-52
2022/08/12 13:46:39;;;;;;;2.67;2.47;;;34.10;38.80;;;;;;5024784;28;20447;-53
2022/08/12 13:49:10;;;;;;;11.07;2.40;;;34.30;39.40;;;;;;5023660;28;20503;-53
2022/08/12 13:51:37;;;;;;;2.67;2.23;;;34.30;39.30;;;;;;5027517;28;21075;-56
2022/08/12 13:54:04;;;;;;;2.53;2.33;;;;;;;;;;5020741;28;20776;-58
2022/08/12 13:56:32;;;;;;;2.67;2.10;;;34.10;38.80;;;;;;5003497;28;20979;-57
2022/08/12 13:59:01;;;;;;;4.10;2.47;;;34.10;39.10;;;;;;5014399;28;20672;-57
2022/08/12 14:01:28;;;;;;;2.60;2.40;;;34.10;39.50;;;;;;5005414;28;20513;-52
2022/08/12 14:03:55;;;;;;;10.93;3.00;;;34.20;39.30;;;;;;5034376;28;20454;-53
2022/08/12 14:06:22;;;;;;;2.67;2.47;;;34.20;39.30;;;;;;5030737;28;20482;-52
2022/08/12 14:08:49;;;;;;;2.07;1.77;;;34.20;38.60;;;;;;5015402;28;20977;-54
2022/08/12 14:11:17;;;;;;;17.23;2.53;;;34.30;39.00;;;;;;5004972;28;20961;-53
2022/08/12 14:13:43;;;;;;;2.40;2.20;;;34.20;39.60;;;;;;5013113;28;20479;-52
2022/08/12 14:16:17;;;;;;;13.30;3.00;;;34.30;39.10;;;;;;5014775;28;20443;-53
2022/08/12 14:18:44;;;;;;;10.80;2.50;;;34.30;37.90;;;;;;5014786;28;20487;-53
2022/08/12 14:21:13;;;;;;;2.67;2.47;;;34.40;39.10;;;;;;5017378;28;20455;-53
2022/08/12 14:23:41;;;;;;;2.87;2.20;;;;;;;;;;5010252;28;20918;-57
2022/08/12 14:26:09;;;;;;;2.40;2.20;;;34.30;39.00;;;;;;5010370;28;20545;-52
2022/08/12 14:28:37;;;;;;;2.87;2.20;;;34.40;38.50;;;;;;5026074;28;20479;-53
2022/08/12 14:31:06;;;;;;;2.73;2.53;;;34.30;38.30;;;;;;5039160;28;20445;-53
2022/08/12 14:33:36;;;;;;;2.60;2.40;;;34.20;38.40;;;;;;5031140;28;20471;-53
2022/08/12 14:36:05;;;;;;;2.23;1.70;;;34.10;38.20;;;;;;5032988;28;20466;-52
2022/08/12 14:38:36;;;;;;;3.80;2.50;;;33.70;38.60;;;;;;5041678;28;20528;-52
2022/08/12 14:41:04;;;;;;;5.37;2.00;;;33.80;40.00;;;;;;5024189;28;20462;-53